Time;durP1;ratioP1;P1;durP2;ratioP2;P2;SDS_P1;SDS_P2;PMS_P1;PMS_P2;Temp;Humidity;BMP_temperature;BMP_pressure;BME280_temperature;BME280_humidity;BME280_pressure;Samples;Min_cycle;Max_cycle;Signal;HPM_P1;HPM_P2
2022/01/19 00:00:52;;;;;;;9.17;4.70;;;;;;;-0.06;100.00;97767.19;5056325;27;101684;-59
2022/01/19 00:03:19;;;;;;;7.47;4.67;;;;;;;-0.08;100.00;97754.31;5030248;28;105777;-59
2022/01/19 00:05:49;;;;;;;8.37;4.63;;;;;;;-0.32;100.00;97744.59;5047524;27;101904;-59
2022/01/19 00:08:21;;;;;;;8.10;4.30;;;;;;;-0.24;100.00;97737.66;5015706;27;105146;-59
2022/01/19 00:10:50;;;;;;;8.93;5.20;;;;;;;-0.25;100.00;97741.25;5033672;27;105393;-59
2022/01/19 00:13:20;;;;;;;7.87;4.53;;;;;;;-0.28;100.00;97741.53;5031999;27;101923;-59
2022/01/19 00:15:47;;;;;;;8.37;4.33;;;;;;;-0.41;100.00;97743.72;5030671;28;105698;-59
2022/01/19 00:18:24;;;;;;;7.10;4.53;;;;;;;-0.35;100.00;97743.09;5030161;28;105432;-59
2022/01/19 00:20:52;;;;;;;7.17;4.37;;;;;;;-0.38;100.00;97735.59;5034126;28;103692;-60
2022/01/19 00:23:21;;;;;;;8.03;4.50;;;;;;;-0.40;100.00;97737.50;5030253;28;103759;-60
2022/01/19 00:25:49;;;;;;;11.90;4.97;;;;;;;-0.51;100.00;97747.38;5030874;28;101848;-60
2022/01/19 00:28:18;;;;;;;8.03;4.70;;;;;;;-0.42;100.00;97745.50;5027153;28;103793;-60
2022/01/19 00:30:46;;;;;;;8.43;4.20;;;;;;;-0.51;100.00;97750.78;5033111;27;105039;-60
2022/01/19 00:33:14;;;;;;;7.33;4.43;;;;;;;-0.65;100.00;97743.50;5030102;28;101913;-60
2022/01/19 00:35:42;;;;;;;7.87;4.87;;;;;;;-0.78;100.00;97737.78;5027276;28;105580;-60
2022/01/19 00:38:11;;;;;;;7.03;4.33;;;;;;;-0.79;100.00;97743.97;5013114;28;103098;-60
2022/01/19 00:40:39;;;;;;;5.97;4.10;;;;;;;-0.77;100.00;97742.03;5030388;28;101965;-60
2022/01/19 00:43:06;;;;;;;8.23;4.67;;;;;;;-0.71;100.00;97736.22;5032732;28;105663;-60
2022/01/19 00:45:35;;;;;;;7.07;4.30;;;;;;;-0.76;100.00;97730.66;5030359;28;101998;-60
2022/01/19 00:48:07;;;;;;;9.13;4.70;;;;;;;-0.70;100.00;97734.44;5030447;28;104930;-60
2022/01/19 00:50:33;;;;;;;8.73;4.60;;;;;;;-0.82;100.00;97741.66;5029444;28;105797;-60
2022/01/19 00:53:00;;;;;;;11.07;5.30;;;;;;;-0.84;100.00;97737.53;5030278;28;101930;-60
2022/01/19 00:55:29;;;;;;;7.40;5.00;;;;;;;-0.84;100.00;97746.22;5026501;28;105350;-60
2022/01/19 00:57:56;;;;;;;10.53;5.23;;;;;;;-0.86;100.00;97752.53;5009764;28;105702;-60
2022/01/19 01:00:28;;;;;;;9.10;5.57;;;;;;;-0.87;100.00;97743.06;5025747;28;101992;-60
2022/01/19 01:02:58;;;;;;;11.63;5.87;;;;;;;-0.82;100.00;97727.78;5026592;28;105477;-60
2022/01/19 01:05:25;;;;;;;9.47;5.27;;;;;;;-0.82;100.00;97731.22;5016179;28;104973;-60
2022/01/19 01:07:53;;;;;;;8.27;5.07;;;;;;;-0.78;100.00;97736.97;5014274;28;102967;-60
2022/01/19 01:10:21;;;;;;;8.57;5.10;;;;;;;-0.77;100.00;97730.78;5029735;28;104996;-60
2022/01/19 01:13:22;;;;;;;9.70;5.90;;;;;;;-0.76;100.00;97730.66;5031288;27;101895;-60
2022/01/19 01:16:00;;;;;;;10.50;5.23;;;;;;;-0.82;100.00;97725.97;5029422;28;104854;-60
2022/01/19 01:18:52;;;;;;;10.43;5.07;;;;;;;-0.93;100.00;97726.19;5029240;28;105019;-60
2022/01/19 01:21:19;;;;;;;11.23;4.47;;;;;;;-0.96;100.00;97720.44;5029803;28;101917;-60
2022/01/19 01:23:46;;;;;;;7.33;4.27;;;;;;;-1.02;100.00;97710.59;5029858;28;105194;-60
2022/01/19 01:26:13;;;;;;;8.77;4.40;;;;;;;-0.98;100.00;97711.94;5030455;28;101827;-60
2022/01/19 01:28:47;;;;;;;7.23;4.00;;;;;;;-1.06;100.00;97707.47;5033066;28;101795;-60
2022/01/19 01:31:14;;;;;;;11.63;4.07;;;;;;;-1.13;100.00;97706.41;5028477;28;104950;-60
2022/01/19 01:33:42;;;;;;;8.77;3.80;;;;;;;-1.11;100.00;97704.47;5029759;28;101970;-60
2022/01/19 01:36:12;;;;;;;9.80;4.13;;;;;;;-1.10;100.00;97702.69;5025723;28;104786;-60
2022/01/19 01:38:43;;;;;;;10.47;4.97;;;;;;;-1.09;100.00;97705.13;5008964;28;105565;-60
2022/01/19 01:41:19;;;;;;;9.70;4.60;;;;;;;-1.08;100.00;97701.56;5029209;28;101921;-60
2022/01/19 01:43:53;;;;;;;9.67;4.83;;;;;;;-1.08;100.00;97698.13;5029247;28;104034;-60
2022/01/19 01:46:33;;;;;;;6.07;4.00;;;;;;;-1.04;100.00;97678.59;5028758;28;106252;-60
2022/01/19 01:49:05;;;;;;;6.93;4.20;;;;;;;-0.97;100.00;97682.25;5025660;28;101817;-60
2022/01/19 01:54:18;;;;;;;7.50;4.67;;;;;;;-1.01;100.00;97663.47;5029361;28;101853;-60
2022/01/19 01:56:45;;;;;;;8.37;4.73;;;;;;;-1.13;100.00;97653.38;5025874;28;104360;-60
2022/01/19 01:59:16;;;;;;;5.97;4.20;;;;;;;-1.38;100.00;97639.25;5013427;28;105103;-60
2022/01/19 02:01:43;;;;;;;8.57;4.23;;;;;;;-1.26;100.00;97630.25;5027681;28;101705;-60
2022/01/19 02:04:14;;;;;;;5.87;4.53;;;;;;;-1.49;100.00;97615.97;5029319;28;104739;-60
2022/01/19 02:07:08;;;;;;;7.97;4.50;;;;;;;-1.51;100.00;97606.66;5028252;28;105266;-60
2022/01/19 02:09:47;;;;;;;7.73;4.40;;;;;;;-1.45;100.00;97606.06;5025514;28;102046;-60
2022/01/19 02:23:20;;;;;;;7.97;4.37;;;;;;;-1.51;100.00;97570.97;5029103;28;101821;-60
2022/01/19 02:25:48;;;;;;;7.20;4.10;;;;;;;-1.57;100.00;97560.28;5028651;28;105802;-60
2022/01/19 02:40:07;;;;;;;13.87;10.10;;;;;;;-1.54;100.00;97534.72;5031571;28;105642;-60
2022/01/19 02:42:33;;;;;;;9.67;6.60;;;;;;;-1.71;100.00;97529.53;5026250;28;102597;-60
2022/01/19 02:50:31;;;;;;;9.93;5.40;;;;;;;-1.77;100.00;97511.81;5028070;28;105396;-60
2022/01/19 02:53:00;;;;;;;13.97;5.50;;;;;;;-1.81;100.00;97495.66;5025170;28;101982;-60
2022/01/19 02:55:29;;;;;;;11.30;5.93;;;;;;;-1.77;100.00;97497.03;5008647;28;105218;-60
2022/01/19 02:58:25;;;;;;;9.63;6.13;;;;;;;-1.83;100.00;97489.78;5026517;28;103958;-60
2022/01/19 03:09:15;;;;;;;14.67;10.30;;;;;;;-1.80;100.00;97486.06;5031032;28;105565;-60
2022/01/19 03:11:43;;;;;;;14.73;8.77;;;;;;;-1.77;100.00;97477.94;5030069;28;105125;-60
2022/01/19 03:14:12;;;;;;;13.73;9.63;;;;;;;-1.68;100.00;97477.88;5029272;28;101928;-60
2022/01/19 03:16:38;;;;;;;13.80;10.20;;;;;;;-1.74;100.00;97481.09;5028257;28;105223;-60
2022/01/19 03:19:09;;;;;;;15.70;10.43;;;;;;;-1.68;100.00;97477.88;5011620;28;102700;-60
2022/01/19 03:21:35;;;;;;;14.30;10.53;;;;;;;-1.58;100.00;97465.56;5019079;28;101823;-60
2022/01/19 03:24:03;;;;;;;22.10;14.50;;;;;;;-1.49;100.00;97464.69;5013563;28;105220;-60
2022/01/19 03:26:32;;;;;;;21.87;14.97;;;;;;;-1.51;100.00;97461.41;5010646;28;101897;-60
2022/01/19 03:29:31;;;;;;;21.00;14.40;;;;;;;-1.59;100.00;97461.34;5010794;28;105342;-60
2022/01/19 03:31:58;;;;;;;24.00;13.80;;;;;;;-1.54;100.00;97456.50;5020773;28;105359;-60
2022/01/19 03:34:25;;;;;;;24.30;13.33;;;;;;;-1.51;100.00;97456.22;5026667;28;101864;-60
2022/01/19 03:37:00;;;;;;;19.90;13.60;;;;;;;-1.50;100.00;97455.22;5027186;28;105322;-60
2022/01/19 03:39:33;;;;;;;17.43;11.17;;;;;;;-1.69;100.00;97452.75;5026001;28;105153;-60
2022/01/19 03:42:16;;;;;;;14.40;9.50;;;;;;;-1.84;100.00;97449.06;5026936;28;101767;-60
2022/01/19 03:44:43;;;;;;;16.80;8.83;;;;;;;-1.99;100.00;97444.47;5011635;28;103777;-60
2022/01/19 03:47:10;;;;;;;16.07;9.87;;;;;;;-2.05;100.00;97451.13;5034345;27;104727;-60
2022/01/19 03:49:37;;;;;;;16.87;9.30;;;;;;;-2.08;100.00;97440.97;5031003;28;105200;-60
2022/01/19 03:52:06;;;;;;;14.87;10.33;;;;;;;-1.98;100.00;97441.72;5030206;28;105741;-60
2022/01/19 03:54:37;;;;;;;12.23;8.47;;;;;;;-2.18;100.00;97442.00;5026802;28;101898;-60
2022/01/19 03:57:05;;;;;;;14.60;8.53;;;;;;;-2.12;100.00;97439.66;5021210;28;105671;-60
2022/01/19 03:59:37;;;;;;;11.37;8.63;;;;;;;-2.12;100.00;97433.59;5039686;27;105060;-60
2022/01/19 04:02:04;;;;;;;12.40;8.20;;;;;;;-2.08;100.00;97440.16;5030580;28;102176;-60
2022/01/19 04:04:38;;;;;;;13.30;9.03;;;;;;;-2.11;100.00;97436.06;5048300;27;104971;-60
2022/01/19 04:07:09;;;;;;;16.47;9.70;;;;;;;-2.07;100.00;97441.81;5027037;28;105341;-60
2022/01/19 04:09:40;;;;;;;18.77;9.17;;;;;;;-2.10;100.00;97442.91;5014521;28;102027;-60
2022/01/19 04:12:12;;;;;;;12.73;9.03;;;;;;;-2.13;100.00;97442.38;5020694;28;105176;-60
2022/01/19 04:14:41;;;;;;;11.33;7.80;;;;;;;-2.15;100.00;97439.94;5022671;28;103354;-60
2022/01/19 04:17:10;;;;;;;15.80;7.97;;;;;;;-2.21;100.00;97448.31;5010547;28;105268;-60
2022/01/19 04:19:43;;;;;;;9.50;6.70;;;;;;;-2.29;100.00;97444.81;5010240;28;105175;-60
2022/01/19 04:22:18;;;;;;;13.80;7.23;;;;;;;-2.30;100.00;97456.19;5010738;28;101854;-60
2022/01/19 04:24:47;;;;;;;12.80;7.70;;;;;;;-2.27;100.00;97458.50;5007330;28;104856;-60
2022/01/19 04:27:33;;;;;;;13.03;8.00;;;;;;;-2.15;100.00;97460.78;4990220;28;104927;-60
2022/01/19 04:30:07;;;;;;;16.33;8.60;;;;;;;-2.26;100.00;97455.75;5003441;28;101788;-60
2022/01/19 04:32:50;;;;;;;12.53;9.03;;;;;;;-2.04;100.00;97457.97;5006564;28;105129;-60
2022/01/19 04:35:22;;;;;;;12.13;7.97;;;;;;;-1.90;100.00;97464.44;5001568;28;102007;-60
2022/01/19 04:38:37;;;;;;;14.40;10.47;;;;;;;-1.87;100.00;97453.75;5010624;28;105170;-60
2022/01/19 05:01:41;;;;;;;15.43;10.57;;;;;;;-1.95;100.00;97501.41;5024205;28;102060;-60
2022/01/19 05:04:46;;;;;;;17.10;11.57;;;;;;;-1.99;100.00;97502.66;5026336;27;102545;-60
2022/01/19 05:07:31;;;;;;;17.63;11.27;;;;;;;-2.03;100.00;97490.88;5020508;28;105226;-60
2022/01/19 05:13:22;;;;;;;18.77;11.83;;;;;;;-2.03;100.00;97500.50;5007969;28;101756;-60
2022/01/19 05:15:48;;;;;;;17.20;11.70;;;;;;;-2.00;100.00;97505.38;5024462;28;102052;-60
2022/01/19 05:18:24;;;;;;;16.07;12.00;;;;;;;-2.05;100.00;97505.84;5008387;28;103901;-60
2022/01/19 05:20:53;;;;;;;17.03;11.60;;;;;;;-2.07;100.00;97510.34;5023692;28;105549;-60
2022/01/19 05:23:39;;;;;;;18.80;11.80;;;;;;;-2.05;100.00;97507.59;5025743;28;101676;-60
2022/01/19 05:26:06;;;;;;;22.17;12.80;;;;;;;-1.99;100.00;97512.25;5023870;28;105235;-60
2022/01/19 05:28:44;;;;;;;20.77;12.63;;;;;;;-2.06;100.00;97506.81;5023507;28;105075;-60
2022/01/19 05:31:12;;;;;;;18.63;12.73;;;;;;;-2.00;100.00;97503.63;5037758;27;102166;-60
2022/01/19 05:33:39;;;;;;;18.47;12.87;;;;;;;-1.88;100.00;97502.44;5006971;28;105774;-60
2022/01/19 05:36:08;;;;;;;21.83;13.60;;;;;;;-2.01;100.00;97507.19;5003738;28;101855;-60
2022/01/19 05:38:35;;;;;;;22.73;13.80;;;;;;;-1.96;100.00;97501.53;5005029;28;102123;-60
2022/01/19 05:41:37;;;;;;;22.97;14.53;;;;;;;-1.97;100.00;97498.09;5003334;28;104049;-60
2022/01/19 05:44:08;;;;;;;23.23;14.20;;;;;;;-1.89;100.00;97498.19;5003545;28;101976;-60
2022/01/19 05:46:35;;;;;;;22.93;14.40;;;;;;;-1.99;100.00;97497.44;5002858;28;104908;-60
2022/01/19 05:49:02;;;;;;;22.23;14.27;;;;;;;-1.96;100.00;97497.16;5002982;28;105168;-60
2022/01/19 05:51:32;;;;;;;25.80;16.00;;;;;;;-1.89;100.00;97495.59;5003483;28;102029;-60
2022/01/19 05:53:59;;;;;;;26.93;16.83;;;;;;;-1.93;100.00;97491.63;5003603;28;105640;-60
2022/01/19 05:56:26;;;;;;;22.20;14.07;;;;;;;-1.88;100.00;97492.00;5005938;28;105107;-60
2022/01/19 05:59:00;;;;;;;24.87;16.23;;;;;;;-1.78;100.00;97476.31;4989964;28;105142;-60
2022/01/19 06:01:28;;;;;;;24.10;15.13;;;;;;;-1.87;100.00;97474.59;4989761;28;105545;-60
2022/01/19 06:03:55;;;;;;;23.40;14.73;;;;;;;-1.93;100.00;97476.00;4973619;28;102090;-60
2022/01/19 06:06:42;;;;;;;24.67;14.60;;;;;;;-1.73;100.00;97461.88;4988386;28;102058;-60
2022/01/19 06:09:33;;;;;;;23.57;14.27;;;;;;;-1.73;100.00;97455.81;4989219;28;105121;-60
2022/01/19 06:12:04;;;;;;;23.13;15.73;;;;;;;-1.77;100.00;97452.69;4990137;28;102021;-60
2022/01/19 06:14:32;;;;;;;22.50;14.70;;;;;;;-1.76;100.00;97450.94;4989928;28;104721;-60
2022/01/19 06:17:00;;;;;;;23.73;14.33;;;;;;;-1.78;100.00;97451.06;4989385;28;104240;-60
2022/01/19 06:19:27;;;;;;;23.50;15.07;;;;;;;-1.78;100.00;97447.63;4993334;28;102285;-60
2022/01/19 06:21:56;;;;;;;19.57;13.80;;;;;;;-1.79;100.00;97440.78;4989192;28;105434;-60
2022/01/19 06:24:23;;;;;;;21.37;14.60;;;;;;;-1.81;100.00;97443.53;4989807;28;101960;-60
2022/01/19 06:26:50;;;;;;;22.70;14.53;;;;;;;-1.86;100.00;97440.53;4989231;28;104867;-60
2022/01/19 06:29:18;;;;;;;22.53;14.63;;;;;;;-1.82;100.00;97430.63;4989187;28;105515;-60
2022/01/19 06:31:45;;;;;;;22.77;15.27;;;;;;;-1.78;100.00;97432.81;4989424;28;102262;-60
2022/01/19 06:34:14;;;;;;;24.70;14.33;;;;;;;-1.78;100.00;97430.22;4989509;28;105128;-60
2022/01/19 06:37:11;;;;;;;24.90;16.13;;;;;;;-1.85;100.00;97426.56;4990098;28;103681;-60
2022/01/19 06:39:51;;;;;;;25.67;14.80;;;;;;;-1.93;100.00;97421.25;4989592;28;101860;-60
2022/01/19 06:42:18;;;;;;;27.67;15.40;;;;;;;-1.96;100.00;97420.75;4992236;28;105703;-60
2022/01/19 06:44:45;;;;;;;22.87;15.43;;;;;;;-1.95;100.00;97415.38;4989017;28;102112;-60
2022/01/19 06:47:13;;;;;;;25.77;15.63;;;;;;;-1.98;100.00;97409.66;4989306;28;104586;-60
2022/01/19 06:49:40;;;;;;;22.33;14.80;;;;;;;-1.98;100.00;97417.47;4988743;28;105508;-60
2022/01/19 06:52:11;;;;;;;24.47;15.23;;;;;;;-1.93;100.00;97412.59;4989189;28;102018;-60
2022/01/19 06:54:38;;;;;;;22.50;14.23;;;;;;;-2.00;100.00;97407.19;4989402;28;103953;-60
2022/01/19 06:57:06;;;;;;;22.07;14.40;;;;;;;-2.00;100.00;97411.56;4988823;28;105518;-60
2022/01/19 06:59:37;;;;;;;20.47;14.07;;;;;;;-1.92;100.00;97409.84;5022510;28;101801;-60
2022/01/19 07:02:07;;;;;;;22.93;14.93;;;;;;;-1.86;100.00;97416.28;4989173;28;105306;-60
2022/01/19 07:05:00;;;;;;;22.47;14.63;;;;;;;-1.88;100.00;97419.03;4991329;28;103203;-60
2022/01/19 07:07:45;;;;;;;25.17;15.33;;;;;;;-1.92;100.00;97416.88;4988976;28;105345;-60
2022/01/19 07:10:13;;;;;;;26.80;17.30;;;;;;;-1.89;100.00;97409.56;4987198;28;105066;-60
2022/01/19 07:12:42;;;;;;;28.07;16.83;;;;;;;-1.86;100.00;97406.66;5022255;28;101844;-60
2022/01/19 07:15:10;;;;;;;27.00;17.53;;;;;;;-1.81;100.00;97401.81;4988796;28;104909;-60
2022/01/19 07:17:38;;;;;;;30.67;20.43;;;;;;;-1.84;100.00;97411.72;4988273;28;105373;-60
2022/01/19 07:20:06;;;;;;;25.30;16.90;;;;;;;-1.92;100.00;97409.06;4988686;28;101817;-60
2022/01/19 07:22:34;;;;;;;21.23;14.13;;;;;;;-1.90;100.00;97412.31;4988475;28;104913;-60
2022/01/19 07:25:06;;;;;;;22.80;13.67;;;;;;;-1.92;100.00;97409.84;4991628;28;104892;-60
2022/01/19 07:27:33;;;;;;;22.10;13.93;;;;;;;-1.90;100.00;97405.34;4988044;28;104011;-60
2022/01/19 07:30:01;;;;;;;21.57;14.20;;;;;;;-1.94;100.00;97421.41;4987832;28;105122;-60
2022/01/19 07:32:30;;;;;;;20.70;14.07;;;;;;;-1.99;100.00;97411.44;4988631;28;102390;-60
2022/01/19 07:34:58;;;;;;;22.17;13.60;;;;;;;-2.02;100.00;97414.31;4988769;28;105139;-60
2022/01/19 07:37:25;;;;;;;20.47;13.30;;;;;;;-1.93;100.00;97413.44;4971344;28;105542;-60
2022/01/19 07:39:52;;;;;;;20.30;13.90;;;;;;;-1.92;100.00;97416.88;4988572;28;101911;-60
2022/01/19 07:42:21;;;;;;;19.90;13.97;;;;;;;-1.96;100.00;97418.13;4988613;28;104869;-60
2022/01/19 07:44:54;;;;;;;22.47;15.53;;;;;;;-1.84;100.00;97412.56;4987788;28;104934;-60
2022/01/19 07:47:57;;;;;;;25.00;15.33;;;;;;;-1.68;100.00;97412.72;4950737;28;102159;-60
2022/01/19 07:50:44;;;;;;;23.63;16.10;;;;;;;-1.56;100.00;97415.88;4985804;28;102481;-60
2022/01/19 07:53:31;;;;;;;22.73;15.27;;;;;;;-1.44;100.00;97405.06;4989608;28;101883;-60
2022/01/19 07:56:13;;;;;;;26.33;15.77;;;;;;;-1.26;100.00;97402.44;4988383;28;105398;-60
2022/01/19 07:59:09;;;;;;;26.67;17.27;;;;;;;-1.11;100.00;97406.94;4987615;28;105678;-60
2022/01/19 08:01:56;;;;;;;27.57;16.70;;;;;;;-1.06;100.00;97398.63;4988336;28;102159;-60
2022/01/19 08:04:46;;;;;;;24.57;16.90;;;;;;;-0.90;100.00;97401.34;4960467;28;102753;-60
2022/01/19 08:07:16;;;;;;;22.80;15.63;;;;;;;-0.70;100.00;97400.97;4987626;28;103976;-60
2022/01/19 08:09:43;;;;;;;26.27;16.30;;;;;;;-0.55;100.00;97396.78;4987770;28;102025;-60
2022/01/19 08:12:11;;;;;;;25.00;15.77;;;;;;;-0.49;100.00;97395.34;5007786;28;103851;-60
2022/01/19 08:14:45;;;;;;;27.70;17.50;;;;;;;-0.57;100.00;97400.53;4988052;28;102109;-60
2022/01/19 08:17:14;;;;;;;30.40;18.57;;;;;;;-0.45;100.00;97391.44;4987977;28;104888;-60
2022/01/19 08:19:45;;;;;;;31.57;18.07;;;;;;;-0.33;100.00;97398.81;4987297;28;104880;-60
2022/01/19 08:22:12;;;;;;;30.57;18.73;;;;;;;-0.31;100.00;97394.28;4987787;28;101954;-60
2022/01/19 08:24:59;;;;;;;27.43;18.00;;;;;;;-0.14;100.00;97385.50;4988930;28;103209;-60
2022/01/19 08:27:27;;;;;;;27.83;17.20;;;;;;;-0.31;100.00;97391.66;4987111;28;105526;-60
2022/01/19 08:30:01;;;;;;;28.57;17.73;;;;;;;-0.42;100.00;97378.88;4987875;28;102340;-60
2022/01/19 08:32:29;;;;;;;27.73;17.87;;;;;;;-0.22;100.00;97379.44;4987781;28;104948;-60
2022/01/19 08:35:19;;;;;;;26.70;17.43;;;;;;;-0.23;100.00;97383.81;5014575;28;103501;-60
2022/01/19 08:38:10;;;;;;;28.77;17.67;;;;;;;-0.01;100.00;97386.66;4982811;28;102697;-60
2022/01/19 08:41:00;;;;;;;30.70;17.40;;;;;;;0.20;100.00;97379.19;4984638;28;102447;-60
2022/01/19 08:43:28;;;;;;;27.80;17.20;;;;;;;-0.11;100.00;97382.53;4987917;28;101892;-60
2022/01/19 08:45:59;;;;;;;26.83;17.37;;;;;;;-0.03;100.00;97372.94;4987011;28;105158;-60
2022/01/19 08:48:37;;;;;;;33.17;19.43;;;;;;;0.24;100.00;97367.38;4986786;28;105920;-60
2022/01/19 08:51:33;;;;;;;31.23;19.17;;;;;;;0.28;100.00;97373.13;4988471;28;102922;-60
2022/01/19 08:54:14;;;;;;;30.20;17.30;;;;;;;0.06;100.00;97365.94;4987593;28;105155;-60
2022/01/19 08:56:47;;;;;;;24.50;15.93;;;;;;;0.27;100.00;97361.84;4987140;28;105084;-60
2022/01/19 08:59:14;;;;;;;29.73;18.17;;;;;;;0.28;100.00;97371.31;4990766;28;101954;-60
2022/01/19 09:01:42;;;;;;;27.73;17.77;;;;;;;0.38;100.00;97355.47;4986785;28;105065;-60
2022/01/19 09:04:09;;;;;;;25.40;17.20;;;;;;;0.43;100.00;97358.41;4987564;28;102023;-60
2022/01/19 09:06:36;;;;;;;27.20;17.53;;;;;;;0.58;100.00;97354.16;4987395;28;104095;-60
2022/01/19 09:09:05;;;;;;;29.03;18.13;;;;;;;0.65;100.00;97339.41;4986933;28;105361;-60
2022/01/19 09:11:32;;;;;;;31.73;19.67;;;;;;;0.70;100.00;97347.59;4987080;28;101792;-60
2022/01/19 09:14:00;;;;;;;27.37;18.30;;;;;;;0.62;100.00;97345.78;4987111;28;105019;-60
2022/01/19 09:16:27;;;;;;;26.90;17.57;;;;;;;0.64;100.00;97345.63;4986837;28;105505;-60
2022/01/19 09:18:56;;;;;;;31.97;19.60;;;;;;;0.78;100.00;97347.59;4992192;28;101882;-60
2022/01/19 09:21:23;;;;;;;26.27;16.37;;;;;;;0.59;100.00;97343.53;4986850;28;104328;-60
2022/01/19 09:23:51;;;;;;;20.63;15.60;;;;;;;0.77;100.00;97348.56;4987140;28;101958;-60
2022/01/19 09:26:18;;;;;;;22.77;16.70;;;;;;;0.76;100.00;97341.69;4986824;28;105698;-60
2022/01/19 09:28:46;;;;;;;20.47;14.60;;;;;;;0.63;100.00;97342.22;4986171;28;105536;-60
2022/01/19 09:31:16;;;;;;;23.47;15.70;;;;;;;0.80;100.00;97327.28;4987179;28;101857;-60
2022/01/19 09:33:44;;;;;;;19.17;14.77;;;;;;;0.40;100.00;97350.91;4991256;28;102663;-60
2022/01/19 09:36:30;;;;;;;19.30;14.57;;;;;;;0.64;100.00;97330.75;4990093;28;105316;-60
2022/01/19 09:38:58;;;;;;;20.83;14.13;;;;;;;0.37;100.00;97332.91;4991711;28;101692;-60
2022/01/19 09:41:25;;;;;;;18.80;13.07;;;;;;;0.60;100.00;97323.41;4993186;28;103737;-60
2022/01/19 09:43:52;;;;;;;18.53;13.97;;;;;;;0.58;100.00;97322.75;4990365;28;101773;-60
2022/01/19 09:46:18;;;;;;;17.87;13.23;;;;;;;0.79;100.00;97317.81;4990143;28;105221;-60
2022/01/19 09:48:46;;;;;;;21.17;13.30;;;;;;;0.90;100.00;97317.44;4989833;28;105412;-60
2022/01/19 09:51:15;;;;;;;19.63;13.90;;;;;;;0.90;100.00;97315.66;4991582;28;102171;-60
2022/01/19 09:53:42;;;;;;;18.40;14.20;;;;;;;0.90;100.00;97317.44;4991677;28;102279;-60
2022/01/19 09:56:09;;;;;;;21.23;14.60;;;;;;;1.08;100.00;97312.81;4989630;28;103992;-60
2022/01/19 09:58:37;;;;;;;19.03;13.77;;;;;;;1.09;100.00;97311.84;4990289;28;101899;-60
2022/01/19 10:01:03;;;;;;;18.13;13.97;;;;;;;1.23;100.00;97300.63;4990186;28;105273;-60
2022/01/19 10:03:33;;;;;;;19.13;14.37;;;;;;;1.49;100.00;97291.47;4992852;28;105651;-60
2022/01/19 10:06:05;;;;;;;18.30;13.67;;;;;;;1.51;100.00;97286.91;4990069;28;106596;-60
2022/01/19 10:08:37;;;;;;;18.43;14.07;;;;;;;1.61;100.00;97295.38;4989558;28;106646;-60
2022/01/19 10:11:10;;;;;;;17.20;13.27;;;;;;;1.77;100.00;97276.09;4989804;28;101861;-60
2022/01/19 10:19:22;;;;;;;18.73;13.87;;;;;;;2.04;100.00;97267.69;4988982;28;101937;-60
2022/01/19 10:21:57;;;;;;;16.87;12.50;;;;;;;2.23;100.00;97264.56;4989778;28;105635;-60
2022/01/19 10:24:48;;;;;;;19.57;14.00;;;;;;;2.28;100.00;97252.56;4989317;28;105525;-60
2022/01/19 10:27:30;;;;;;;15.97;12.93;;;;;;;2.18;100.00;97245.94;4992942;28;102481;-60
2022/01/19 10:30:14;;;;;;;15.13;11.60;;;;;;;2.20;100.00;97236.09;4988949;28;105324;-60
2022/01/19 10:32:46;;;;;;;16.77;12.43;;;;;;;2.12;100.00;97229.09;4989512;28;101914;-60
2022/01/19 10:35:16;;;;;;;18.10;12.80;;;;;;;2.42;100.00;97219.47;4989654;28;104976;-59
2022/01/19 10:37:45;;;;;;;15.77;12.37;;;;;;;2.47;100.00;97217.13;4989004;28;105000;-59
2022/01/19 10:40:17;;;;;;;14.87;12.53;;;;;;;2.60;100.00;97214.69;4990849;28;101728;-60
2022/01/19 10:42:44;;;;;;;17.83;12.27;;;;;;;2.71;100.00;97217.69;4989501;28;105478;-60
2022/01/19 10:45:13;;;;;;;12.07;10.03;;;;;;;2.75;100.00;97210.25;4988115;28;105773;-59
2022/01/19 10:47:46;;;;;;;14.57;10.80;;;;;;;2.72;100.00;97194.84;4989449;28;102214;-59
2022/01/19 10:50:15;;;;;;;12.27;10.77;;;;;;;3.04;100.00;97190.00;4993868;28;102628;-59
2022/01/19 10:52:45;;;;;;;15.63;11.27;;;;;;;3.08;100.00;97193.09;4989351;28;101998;-59
2022/01/19 10:55:14;;;;;;;13.57;10.67;;;;;;;3.17;100.00;97181.47;4989281;28;106499;-59
2022/01/19 10:57:44;;;;;;;14.03;10.80;;;;;;;3.42;100.00;97174.84;4988512;28;105516;-59
2022/01/19 11:00:16;;;;;;;13.47;10.90;;;;;;;3.21;100.00;97172.19;4989345;28;101838;-59
2022/01/19 11:02:44;;;;;;;17.67;10.20;;;;;;;3.18;100.00;97175.22;4989297;28;104821;-59
2022/01/19 11:05:12;;;;;;;17.57;12.77;;;;;;;3.03;100.00;97167.38;4989952;28;102852;-59
2022/01/19 11:07:40;;;;;;;16.13;11.70;;;;;;;3.27;100.00;97153.09;4989095;28;101890;-59
2022/01/19 11:10:12;;;;;;;14.07;11.17;;;;;;;3.56;100.00;97140.63;4989057;28;104864;-59
2022/01/19 11:12:45;;;;;;;14.90;11.70;;;;;;;3.70;100.00;97144.19;4992035;28;105686;-59
2022/01/19 11:15:15;;;;;;;12.33;10.50;;;;;;;3.81;100.00;97125.25;4989064;28;105118;-60
2022/01/19 11:17:43;;;;;;;12.33;9.93;;;;;;;3.89;100.00;97122.50;4989783;28;101674;-59
2022/01/19 11:20:16;;;;;;;12.77;9.03;;;;;;;4.00;100.00;97114.09;4991436;28;101685;-59
2022/01/19 11:23:00;;;;;;;13.73;11.27;;;;;;;4.15;100.00;97114.78;4989908;28;105713;-59
2022/01/19 11:25:35;;;;;;;13.83;10.43;;;;;;;4.42;100.00;97108.69;4988262;28;105675;-59
2022/01/19 11:28:03;;;;;;;12.57;10.03;;;;;;;4.40;100.00;97103.59;4988489;28;101974;-59
2022/01/19 11:30:33;;;;;;;11.00;9.03;;;;;;;4.56;100.00;97099.81;4988828;28;103637;-59
2022/01/19 11:33:23;;;;;;;10.83;9.53;;;;;;;4.74;100.00;97103.56;4992522;28;104962;-59
2022/01/19 11:35:52;;;;;;;10.90;9.10;;;;;;;4.74;100.00;97095.66;4991251;28;102582;-59
2022/01/19 11:38:44;;;;;;;11.33;8.80;;;;;;;4.74;100.00;97093.03;4988712;28;105378;-59
2022/01/19 11:41:37;;;;;;;12.07;8.20;;;;;;;5.06;100.00;97088.84;4976235;28;101927;-59
2022/01/19 11:44:05;;;;;;;11.63;8.57;;;;;;;5.28;100.00;97080.59;4988789;28;105428;-59
2022/01/19 11:46:39;;;;;;;11.80;8.70;;;;;;;5.12;100.00;97080.19;4988221;28;105547;-59
2022/01/19 11:49:09;;;;;;;9.90;7.93;;;;;;;5.18;100.00;97074.91;4989355;28;101999;-59
2022/01/19 11:51:38;;;;;;;9.80;7.83;;;;;;;5.31;100.00;97061.75;4991081;28;102252;-59
2022/01/19 11:54:12;;;;;;;9.33;8.43;;;;;;;5.53;100.00;97054.47;4988657;28;105740;-59
2022/01/19 11:57:08;;;;;;;10.87;8.30;;;;;;;5.68;100.00;97053.22;4992269;28;101957;-60
2022/01/19 12:00:11;;;;;;;10.57;7.67;;;;;;;5.99;100.00;97057.91;4988698;28;105688;-59
2022/01/19 12:02:45;;;;;;;8.10;7.30;;;;;;;6.12;100.00;97045.50;4987380;28;102037;-59
2022/01/19 12:05:26;;;;;;;8.47;7.57;;;;;;;6.29;100.00;97045.88;4989294;28;104873;-59
2022/01/19 12:07:57;;;;;;;9.90;7.67;;;;;;;6.54;100.00;97047.63;4988485;28;105548;-59
2022/01/19 12:10:46;;;;;;;10.13;7.10;;;;;;;6.41;100.00;97042.38;4989165;28;102264;-59
2022/01/19 12:13:55;;;;;;;7.60;6.50;;;;;;;6.82;100.00;97034.88;4988650;28;105154;-59
2022/01/19 12:16:38;;;;;;;10.30;7.00;;;;;;;6.89;100.00;97026.94;4988544;28;105354;-59
2022/01/19 12:19:15;;;;;;;8.13;6.73;;;;;;;7.30;100.00;97027.28;4989051;28;101856;-59
2022/01/19 12:21:50;;;;;;;8.70;6.93;;;;;;;7.22;100.00;97020.41;4991851;28;105498;-59
2022/01/19 12:24:26;;;;;;;8.63;6.77;;;;;;;6.94;100.00;97019.16;4988901;28;101799;-59
2022/01/19 12:26:57;;;;;;;9.83;6.57;;;;;;;7.41;100.00;97008.09;4988539;28;105761;-59
2022/01/19 12:29:53;;;;;;;8.93;6.80;;;;;;;7.48;100.00;97011.47;4988051;28;105772;-59
2022/01/19 12:32:42;;;;;;;8.20;6.70;;;;;;;7.87;100.00;97004.00;4989025;28;101813;-59
2022/01/19 12:35:13;;;;;;;6.13;5.20;;;;;;;7.58;100.00;97001.22;4988796;28;105019;-59
2022/01/19 12:37:44;;;;;;;5.50;4.63;;;;;;;7.70;100.00;96996.84;4989708;28;102515;-59
2022/01/19 12:40:47;;;;;;;5.73;4.80;;;;;;;7.97;100.00;96987.63;4988422;28;101845;-59
2022/01/19 12:43:31;;;;;;;6.40;4.47;;;;;;;8.15;99.70;96984.97;4988540;28;104795;-59
2022/01/19 12:45:58;;;;;;;5.03;4.50;;;;;;;8.34;95.32;96983.97;4990898;28;105885;-60